sensor_id;sensor_type;location;lat;lon;timestamp;temperature;humidity
24860;DHT22;12936;52.006;4.350;2023-06-22T00:02:23;23.30;99.90
24860;DHT22;12936;52.006;4.350;2023-06-22T00:05:12;23.20;99.90
24860;DHT22;12936;52.006;4.350;2023-06-22T00:07:40;23.20;99.90
24860;DHT22;12936;52.006;4.350;2023-06-22T00:10:09;23.20;99.90
24860;DHT22;12936;52.006;4.350;2023-06-22T00:12:37;23.10;99.90
24860;DHT22;12936;52.006;4.350;2023-06-22T00:15:06;23.10;99.90
24860;DHT22;12936;52.006;4.350;2023-06-22T00:17:36;23.10;99.90
24860;DHT22;12936;52.006;4.350;2023-06-22T00:20:05;23.10;99.90
24860;DHT22;12936;52.006;4.350;2023-06-22T00:22:40;23.10;99.90
24860;DHT22;12936;52.006;4.350;2023-06-22T00:25:11;23.10;99.90
24860;DHT22;12936;52.006;4.350;2023-06-22T00:27:42;23.00;99.90
24860;DHT22;12936;52.006;4.350;2023-06-22T00:30:14;23.00;99.90
24860;DHT22;12936;52.006;4.350;2023-06-22T00:32:43;23.00;99.90
24860;DHT22;12936;52.006;4.350;2023-06-22T00:35:14;23.00;99.90
24860;DHT22;12936;52.006;4.350;2023-06-22T00:37:46;22.90;99.90
24860;DHT22;12936;52.006;4.350;2023-06-22T00:40:14;22.90;99.90
24860;DHT22;12936;52.006;4.350;2023-06-22T00:42:48;22.90;99.90
24860;DHT22;12936;52.006;4.350;2023-06-22T00:45:17;22.80;99.90
24860;DHT22;12936;52.006;4.350;2023-06-22T00:47:52;22.90;99.90
24860;DHT22;12936;52.006;4.350;2023-06-22T00:50:24;22.80;99.90
24860;DHT22;12936;52.006;4.350;2023-06-22T00:52:56;22.80;99.90
24860;DHT22;12936;52.006;4.350;2023-06-22T00:55:26;22.80;99.90
24860;DHT22;12936;52.006;4.350;2023-06-22T00:57:56;22.80;99.90
24860;DHT22;12936;52.006;4.350;2023-06-22T01:00:25;22.80;99.90
24860;DHT22;12936;52.006;4.350;2023-06-22T01:02:55;22.70;99.90
24860;DHT22;12936;52.006;4.350;2023-06-22T01:05:24;22.70;99.90
24860;DHT22;12936;52.006;4.350;2023-06-22T01:08:31;22.70;99.90
24860;DHT22;12936;52.006;4.350;2023-06-22T01:11:28;22.70;99.90
24860;DHT22;12936;52.006;4.350;2023-06-22T01:14:04;22.70;99.90
24860;DHT22;12936;52.006;4.350;2023-06-22T01:16:39;22.60;99.90
24860;DHT22;12936;52.006;4.350;2023-06-22T01:19:21;22.60;99.90
24860;DHT22;12936;52.006;4.350;2023-06-22T01:21:56;22.60;99.90
24860;DHT22;12936;52.006;4.350;2023-06-22T01:24:33;22.60;99.90
24860;DHT22;12936;52.006;4.350;2023-06-22T01:27:16;22.50;99.90
24860;DHT22;12936;52.006;4.350;2023-06-22T01:29:55;22.50;99.90
24860;DHT22;12936;52.006;4.350;2023-06-22T01:32:29;22.50;99.90
24860;DHT22;12936;52.006;4.350;2023-06-22T01:34:59;22.50;99.90
24860;DHT22;12936;52.006;4.350;2023-06-22T01:37:29;22.50;99.90
24860;DHT22;12936;52.006;4.350;2023-06-22T01:40:01;22.50;99.90
24860;DHT22;12936;52.006;4.350;2023-06-22T01:42:32;22.50;99.90
24860;DHT22;12936;52.006;4.350;2023-06-22T01:45:04;22.40;99.90
24860;DHT22;12936;52.006;4.350;2023-06-22T01:47:35;22.40;99.90
24860;DHT22;12936;52.006;4.350;2023-06-22T01:50:05;22.40;99.90
24860;DHT22;12936;52.006;4.350;2023-06-22T01:52:35;22.40;99.90
24860;DHT22;12936;52.006;4.350;2023-06-22T01:55:06;22.40;99.90
24860;DHT22;12936;52.006;4.350;2023-06-22T01:57:36;22.40;99.90
24860;DHT22;12936;52.006;4.350;2023-06-22T02:00:11;22.40;99.90
24860;DHT22;12936;52.006;4.350;2023-06-22T02:02:49;22.30;99.90
24860;DHT22;12936;52.006;4.350;2023-06-22T02:05:21;22.30;99.90
24860;DHT22;12936;52.006;4.350;2023-06-22T02:07:57;22.30;99.90
24860;DHT22;12936;52.006;4.350;2023-06-22T02:10:29;22.30;99.90
24860;DHT22;12936;52.006;4.350;2023-06-22T02:13:01;22.30;99.90
24860;DHT22;12936;52.006;4.350;2023-06-22T02:15:53;22.30;99.90
24860;DHT22;12936;52.006;4.350;2023-06-22T02:18:22;22.20;99.90
24860;DHT22;12936;52.006;4.350;2023-06-22T02:20:54;22.30;99.90
24860;DHT22;12936;52.006;4.350;2023-06-22T02:23:29;22.20;99.90
24860;DHT22;12936;52.006;4.350;2023-06-22T02:26:19;22.20;99.90
24860;DHT22;12936;52.006;4.350;2023-06-22T02:28:48;22.20;99.90
24860;DHT22;12936;52.006;4.350;2023-06-22T02:31:19;22.20;99.90
24860;DHT22;12936;52.006;4.350;2023-06-22T02:33:58;22.20;99.90
24860;DHT22;12936;52.006;4.350;2023-06-22T02:36:26;22.20;99.90
24860;DHT22;12936;52.006;4.350;2023-06-22T02:38:58;22.10;99.90
24860;DHT22;12936;52.006;4.350;2023-06-22T02:41:31;22.10;99.90
24860;DHT22;12936;52.006;4.350;2023-06-22T02:44:00;22.10;99.90
24860;DHT22;12936;52.006;4.350;2023-06-22T02:46:32;22.10;99.90
24860;DHT22;12936;52.006;4.350;2023-06-22T02:49:22;22.10;99.90
24860;DHT22;12936;52.006;4.350;2023-06-22T02:51:57;22.10;99.90
24860;DHT22;12936;52.006;4.350;2023-06-22T02:54:29;22.00;99.90
24860;DHT22;12936;52.006;4.350;2023-06-22T02:56:58;22.00;99.90
24860;DHT22;12936;52.006;4.350;2023-06-22T02:59:31;22.00;99.90
24860;DHT22;12936;52.006;4.350;2023-06-22T03:02:02;22.00;99.90
24860;DHT22;12936;52.006;4.350;2023-06-22T03:04:33;22.00;99.90
24860;DHT22;12936;52.006;4.350;2023-06-22T03:07:21;21.90;99.90
24860;DHT22;12936;52.006;4.350;2023-06-22T03:09:52;21.90;99.90
24860;DHT22;12936;52.006;4.350;2023-06-22T03:12:24;21.90;99.90
24860;DHT22;12936;52.006;4.350;2023-06-22T03:14:54;21.90;99.90
24860;DHT22;12936;52.006;4.350;2023-06-22T03:17:52;21.90;99.90
24860;DHT22;12936;52.006;4.350;2023-06-22T03:20:22;21.90;99.90
24860;DHT22;12936;52.006;4.350;2023-06-22T03:23:01;21.90;99.90
24860;DHT22;12936;52.006;4.350;2023-06-22T03:25:31;21.90;99.90
24860;DHT22;12936;52.006;4.350;2023-06-22T03:28:03;21.80;99.90
24860;DHT22;12936;52.006;4.350;2023-06-22T03:30:31;21.80;99.90
24860;DHT22;12936;52.006;4.350;2023-06-22T03:33:01;21.80;99.90
24860;DHT22;12936;52.006;4.350;2023-06-22T03:35:30;21.80;99.90
24860;DHT22;12936;52.006;4.350;2023-06-22T03:37:59;21.80;99.90
24860;DHT22;12936;52.006;4.350;2023-06-22T03:40:28;21.80;99.90
24860;DHT22;12936;52.006;4.350;2023-06-22T03:42:58;21.80;99.90
24860;DHT22;12936;52.006;4.350;2023-06-22T03:45:27;21.70;99.90
24860;DHT22;12936;52.006;4.350;2023-06-22T03:47:58;21.70;99.90
24860;DHT22;12936;52.006;4.350;2023-06-22T03:50:29;21.70;99.90
24860;DHT22;12936;52.006;4.350;2023-06-22T03:52:58;21.70;99.90
24860;DHT22;12936;52.006;4.350;2023-06-22T03:55:28;21.70;99.90
24860;DHT22;12936;52.006;4.350;2023-06-22T03:57:57;21.70;99.90
24860;DHT22;12936;52.006;4.350;2023-06-22T04:00:33;21.70;99.90
24860;DHT22;12936;52.006;4.350;2023-06-22T04:03:03;21.70;99.90
24860;DHT22;12936;52.006;4.350;2023-06-22T04:05:33;21.70;99.90
24860;DHT22;12936;52.006;4.350;2023-06-22T04:08:02;21.70;99.90
24860;DHT22;12936;52.006;4.350;2023-06-22T04:10:31;21.70;99.90
24860;DHT22;12936;52.006;4.350;2023-06-22T04:13:01;21.70;99.90
24860;DHT22;12936;52.006;4.350;2023-06-22T04:15:31;21.70;99.90
24860;DHT22;12936;52.006;4.350;2023-06-22T04:18:03;21.70;99.90
24860;DHT22;12936;52.006;4.350;2023-06-22T04:20:35;21.70;99.90
24860;DHT22;12936;52.006;4.350;2023-06-22T04:23:05;21.70;99.90
24860;DHT22;12936;52.006;4.350;2023-06-22T04:25:33;21.70;99.90
24860;DHT22;12936;52.006;4.350;2023-06-22T04:28:02;21.70;99.90
24860;DHT22;12936;52.006;4.350;2023-06-22T04:30:40;21.70;99.90
24860;DHT22;12936;52.006;4.350;2023-06-22T04:33:16;21.70;99.90
24860;DHT22;12936;52.006;4.350;2023-06-22T04:35:47;21.70;99.90
24860;DHT22;12936;52.006;4.350;2023-06-22T04:38:15;21.70;99.90
24860;DHT22;12936;52.006;4.350;2023-06-22T04:40:43;21.70;99.90
24860;DHT22;12936;52.006;4.350;2023-06-22T04:43:12;21.70;99.90
24860;DHT22;12936;52.006;4.350;2023-06-22T04:45:41;21.80;99.90
24860;DHT22;12936;52.006;4.350;2023-06-22T04:48:09;21.80;99.90
24860;DHT22;12936;52.006;4.350;2023-06-22T04:50:39;21.80;99.90
24860;DHT22;12936;52.006;4.350;2023-06-22T04:53:11;21.80;99.90
24860;DHT22;12936;52.006;4.350;2023-06-22T04:55:39;21.80;99.90
24860;DHT22;12936;52.006;4.350;2023-06-22T04:58:12;21.80;99.90
24860;DHT22;12936;52.006;4.350;2023-06-22T05:00:40;21.90;99.90
24860;DHT22;12936;52.006;4.350;2023-06-22T05:03:29;21.90;99.90
24860;DHT22;12936;52.006;4.350;2023-06-22T05:05:58;21.90;99.90
24860;DHT22;12936;52.006;4.350;2023-06-22T05:08:27;22.00;99.90
24860;DHT22;12936;52.006;4.350;2023-06-22T05:10:58;22.00;99.90
24860;DHT22;12936;52.006;4.350;2023-06-22T05:13:32;22.00;99.90
24860;DHT22;12936;52.006;4.350;2023-06-22T05:16:00;22.00;99.90
24860;DHT22;12936;52.006;4.350;2023-06-22T05:18:31;22.10;99.90
24860;DHT22;12936;52.006;4.350;2023-06-22T05:21:00;22.10;99.90
24860;DHT22;12936;52.006;4.350;2023-06-22T05:23:31;22.10;99.90
24860;DHT22;12936;52.006;4.350;2023-06-22T05:25:59;22.10;99.90
24860;DHT22;12936;52.006;4.350;2023-06-22T05:28:27;22.10;99.90
24860;DHT22;12936;52.006;4.350;2023-06-22T05:30:55;22.20;99.90
24860;DHT22;12936;52.006;4.350;2023-06-22T05:33:23;22.20;99.90
24860;DHT22;12936;52.006;4.350;2023-06-22T05:35:51;22.20;99.90
24860;DHT22;12936;52.006;4.350;2023-06-22T05:38:19;22.20;99.90
24860;DHT22;12936;52.006;4.350;2023-06-22T05:40:49;22.20;99.90
24860;DHT22;12936;52.006;4.350;2023-06-22T05:43:17;22.20;99.90
24860;DHT22;12936;52.006;4.350;2023-06-22T05:45:45;22.20;99.90
24860;DHT22;12936;52.006;4.350;2023-06-22T05:48:13;22.20;99.90
24860;DHT22;12936;52.006;4.350;2023-06-22T05:50:42;22.20;99.90
24860;DHT22;12936;52.006;4.350;2023-06-22T05:53:10;22.20;99.90
24860;DHT22;12936;52.006;4.350;2023-06-22T05:55:39;22.30;99.90
24860;DHT22;12936;52.006;4.350;2023-06-22T05:58:08;22.30;99.90
24860;DHT22;12936;52.006;4.350;2023-06-22T06:00:37;22.30;99.90
24860;DHT22;12936;52.006;4.350;2023-06-22T06:03:06;22.30;99.90
24860;DHT22;12936;52.006;4.350;2023-06-22T06:05:35;22.30;99.90
24860;DHT22;12936;52.006;4.350;2023-06-22T06:08:04;22.30;99.90
24860;DHT22;12936;52.006;4.350;2023-06-22T06:10:33;22.30;99.90
24860;DHT22;12936;52.006;4.350;2023-06-22T06:13:02;22.40;99.90
24860;DHT22;12936;52.006;4.350;2023-06-22T06:15:33;22.40;99.90
24860;DHT22;12936;52.006;4.350;2023-06-22T06:18:02;22.40;99.90
24860;DHT22;12936;52.006;4.350;2023-06-22T06:20:32;22.40;99.90
24860;DHT22;12936;52.006;4.350;2023-06-22T06:23:00;22.40;99.90
24860;DHT22;12936;52.006;4.350;2023-06-22T06:25:30;22.40;99.90
24860;DHT22;12936;52.006;4.350;2023-06-22T06:27:58;22.40;99.90
24860;DHT22;12936;52.006;4.350;2023-06-22T06:30:26;22.40;99.90
24860;DHT22;12936;52.006;4.350;2023-06-22T06:36:10;22.50;99.90
24860;DHT22;12936;52.006;4.350;2023-06-22T06:38:40;22.50;99.90
24860;DHT22;12936;52.006;4.350;2023-06-22T06:41:08;22.50;99.90
24860;DHT22;12936;52.006;4.350;2023-06-22T06:43:36;22.50;99.90
24860;DHT22;12936;52.006;4.350;2023-06-22T06:46:04;22.50;99.90
24860;DHT22;12936;52.006;4.350;2023-06-22T06:48:34;22.50;99.90
24860;DHT22;12936;52.006;4.350;2023-06-22T06:51:02;22.50;99.90
24860;DHT22;12936;52.006;4.350;2023-06-22T06:53:30;22.50;99.90
24860;DHT22;12936;52.006;4.350;2023-06-22T06:55:58;22.50;99.90
24860;DHT22;12936;52.006;4.350;2023-06-22T06:58:26;22.50;99.90
24860;DHT22;12936;52.006;4.350;2023-06-22T07:00:55;22.60;99.90
24860;DHT22;12936;52.006;4.350;2023-06-22T07:03:23;22.60;99.90
24860;DHT22;12936;52.006;4.350;2023-06-22T07:05:54;22.60;99.90
24860;DHT22;12936;52.006;4.350;2023-06-22T07:08:22;22.70;99.90
24860;DHT22;12936;52.006;4.350;2023-06-22T07:10:50;22.70;99.90
24860;DHT22;12936;52.006;4.350;2023-06-22T07:13:19;22.80;99.90
24860;DHT22;12936;52.006;4.350;2023-06-22T07:15:47;22.80;99.90
24860;DHT22;12936;52.006;4.350;2023-06-22T07:18:15;22.80;99.90
24860;DHT22;12936;52.006;4.350;2023-06-22T07:20:43;22.90;99.90
24860;DHT22;12936;52.006;4.350;2023-06-22T07:23:13;22.90;99.90
24860;DHT22;12936;52.006;4.350;2023-06-22T07:25:41;22.90;99.90
24860;DHT22;12936;52.006;4.350;2023-06-22T07:28:09;23.00;99.90
24860;DHT22;12936;52.006;4.350;2023-06-22T07:30:38;23.00;99.90
24860;DHT22;12936;52.006;4.350;2023-06-22T07:33:06;23.00;99.90
24860;DHT22;12936;52.006;4.350;2023-06-22T07:35:35;23.10;99.90
24860;DHT22;12936;52.006;4.350;2023-06-22T07:38:04;23.10;99.90
24860;DHT22;12936;52.006;4.350;2023-06-22T07:40:33;23.10;99.90
24860;DHT22;12936;52.006;4.350;2023-06-22T07:43:02;23.10;99.90
24860;DHT22;12936;52.006;4.350;2023-06-22T07:45:30;23.20;99.90
24860;DHT22;12936;52.006;4.350;2023-06-22T07:48:00;23.20;99.90
24860;DHT22;12936;52.006;4.350;2023-06-22T07:50:28;23.20;99.90
24860;DHT22;12936;52.006;4.350;2023-06-22T07:52:58;23.30;99.90
24860;DHT22;12936;52.006;4.350;2023-06-22T07:55:26;23.30;99.90
24860;DHT22;12936;52.006;4.350;2023-06-22T07:57:56;23.40;99.90
24860;DHT22;12936;52.006;4.350;2023-06-22T08:00:25;23.40;99.90
24860;DHT22;12936;52.006;4.350;2023-06-22T08:02:53;23.40;99.90
24860;DHT22;12936;52.006;4.350;2023-06-22T08:05:21;23.50;99.90
24860;DHT22;12936;52.006;4.350;2023-06-22T08:07:52;23.60;99.90
24860;DHT22;12936;52.006;4.350;2023-06-22T08:10:23;23.60;99.90
24860;DHT22;12936;52.006;4.350;2023-06-22T08:12:51;23.70;99.90
24860;DHT22;12936;52.006;4.350;2023-06-22T08:15:21;23.70;99.90
24860;DHT22;12936;52.006;4.350;2023-06-22T08:17:49;23.70;99.90
24860;DHT22;12936;52.006;4.350;2023-06-22T08:20:19;23.70;99.90
24860;DHT22;12936;52.006;4.350;2023-06-22T08:22:47;23.80;99.90
24860;DHT22;12936;52.006;4.350;2023-06-22T08:25:15;23.80;99.90
24860;DHT22;12936;52.006;4.350;2023-06-22T08:27:45;23.90;99.90
24860;DHT22;12936;52.006;4.350;2023-06-22T08:30:15;23.90;99.90
24860;DHT22;12936;52.006;4.350;2023-06-22T08:32:45;23.90;99.90
24860;DHT22;12936;52.006;4.350;2023-06-22T08:35:13;23.90;99.90
24860;DHT22;12936;52.006;4.350;2023-06-22T08:37:41;23.90;99.90
24860;DHT22;12936;52.006;4.350;2023-06-22T08:40:10;23.90;99.90
24860;DHT22;12936;52.006;4.350;2023-06-22T08:42:40;24.00;99.90
24860;DHT22;12936;52.006;4.350;2023-06-22T08:45:10;24.00;99.90
24860;DHT22;12936;52.006;4.350;2023-06-22T08:47:39;24.10;99.90
24860;DHT22;12936;52.006;4.350;2023-06-22T08:50:10;24.10;99.90
24860;DHT22;12936;52.006;4.350;2023-06-22T08:52:39;24.20;99.90
24860;DHT22;12936;52.006;4.350;2023-06-22T08:55:09;24.30;99.90
24860;DHT22;12936;52.006;4.350;2023-06-22T08:57:37;24.30;99.90
24860;DHT22;12936;52.006;4.350;2023-06-22T09:00:07;24.30;99.90
24860;DHT22;12936;52.006;4.350;2023-06-22T09:02:43;24.30;99.90
24860;DHT22;12936;52.006;4.350;2023-06-22T09:05:13;24.40;99.90
24860;DHT22;12936;52.006;4.350;2023-06-22T09:07:42;24.50;99.90
24860;DHT22;12936;52.006;4.350;2023-06-22T09:10:10;24.50;99.90
24860;DHT22;12936;52.006;4.350;2023-06-22T09:12:39;24.50;99.90
24860;DHT22;12936;52.006;4.350;2023-06-22T09:15:08;24.60;99.90
24860;DHT22;12936;52.006;4.350;2023-06-22T09:17:42;24.70;99.90
24860;DHT22;12936;52.006;4.350;2023-06-22T09:20:10;24.70;99.90
24860;DHT22;12936;52.006;4.350;2023-06-22T09:22:40;24.80;99.90
24860;DHT22;12936;52.006;4.350;2023-06-22T09:25:08;24.80;99.90
24860;DHT22;12936;52.006;4.350;2023-06-22T09:27:37;24.80;99.90
24860;DHT22;12936;52.006;4.350;2023-06-22T09:30:06;24.80;99.90
24860;DHT22;12936;52.006;4.350;2023-06-22T09:32:34;24.90;99.90
24860;DHT22;12936;52.006;4.350;2023-06-22T09:35:05;24.90;99.90
24860;DHT22;12936;52.006;4.350;2023-06-22T09:37:35;24.90;99.90
24860;DHT22;12936;52.006;4.350;2023-06-22T09:40:06;25.00;99.90
24860;DHT22;12936;52.006;4.350;2023-06-22T09:42:38;25.00;99.90
24860;DHT22;12936;52.006;4.350;2023-06-22T09:45:06;25.10;99.90
24860;DHT22;12936;52.006;4.350;2023-06-22T09:47:36;25.10;99.90
24860;DHT22;12936;52.006;4.350;2023-06-22T09:50:05;25.10;99.90
24860;DHT22;12936;52.006;4.350;2023-06-22T09:52:34;25.10;99.90
24860;DHT22;12936;52.006;4.350;2023-06-22T09:55:08;25.20;99.90
24860;DHT22;12936;52.006;4.350;2023-06-22T09:57:36;25.20;99.90
24860;DHT22;12936;52.006;4.350;2023-06-22T10:00:05;25.30;99.90
24860;DHT22;12936;52.006;4.350;2023-06-22T10:02:46;25.30;99.90
24860;DHT22;12936;52.006;4.350;2023-06-22T10:05:18;25.30;99.90
24860;DHT22;12936;52.006;4.350;2023-06-22T10:07:46;25.40;99.90
24860;DHT22;12936;52.006;4.350;2023-06-22T10:10:16;25.40;99.90
24860;DHT22;12936;52.006;4.350;2023-06-22T10:12:46;25.40;99.90
24860;DHT22;12936;52.006;4.350;2023-06-22T10:15:15;25.50;99.90
24860;DHT22;12936;52.006;4.350;2023-06-22T10:17:43;25.50;99.90
24860;DHT22;12936;52.006;4.350;2023-06-22T10:20:11;25.60;99.90
24860;DHT22;12936;52.006;4.350;2023-06-22T10:22:40;25.60;99.90
24860;DHT22;12936;52.006;4.350;2023-06-22T10:25:08;25.60;99.90
24860;DHT22;12936;52.006;4.350;2023-06-22T10:27:38;25.70;99.90
24860;DHT22;12936;52.006;4.350;2023-06-22T10:30:09;25.70;99.90
24860;DHT22;12936;52.006;4.350;2023-06-22T10:32:38;25.60;99.90
24860;DHT22;12936;52.006;4.350;2023-06-22T10:35:08;25.60;99.90
24860;DHT22;12936;52.006;4.350;2023-06-22T10:37:39;25.70;99.90
24860;DHT22;12936;52.006;4.350;2023-06-22T10:40:08;25.70;99.90
24860;DHT22;12936;52.006;4.350;2023-06-22T10:42:38;25.70;99.90
24860;DHT22;12936;52.006;4.350;2023-06-22T10:45:07;25.70;99.90
24860;DHT22;12936;52.006;4.350;2023-06-22T10:47:36;25.70;99.90
24860;DHT22;12936;52.006;4.350;2023-06-22T10:50:05;25.70;99.90
24860;DHT22;12936;52.006;4.350;2023-06-22T10:52:33;25.70;99.90
24860;DHT22;12936;52.006;4.350;2023-06-22T10:55:01;25.70;99.90
24860;DHT22;12936;52.006;4.350;2023-06-22T10:57:43;25.70;99.90
24860;DHT22;12936;52.006;4.350;2023-06-22T11:00:17;25.70;99.90
24860;DHT22;12936;52.006;4.350;2023-06-22T11:02:48;25.70;99.90
24860;DHT22;12936;52.006;4.350;2023-06-22T11:05:16;25.80;99.90
24860;DHT22;12936;52.006;4.350;2023-06-22T11:07:45;25.70;99.90
24860;DHT22;12936;52.006;4.350;2023-06-22T11:10:13;25.80;99.90
24860;DHT22;12936;52.006;4.350;2023-06-22T11:12:43;25.70;99.90
24860;DHT22;12936;52.006;4.350;2023-06-22T11:15:11;25.70;99.90
24860;DHT22;12936;52.006;4.350;2023-06-22T11:17:40;25.70;99.90
24860;DHT22;12936;52.006;4.350;2023-06-22T11:20:08;25.70;99.90
24860;DHT22;12936;52.006;4.350;2023-06-22T11:22:52;25.80;99.90
24860;DHT22;12936;52.006;4.350;2023-06-22T11:25:20;25.80;99.90
24860;DHT22;12936;52.006;4.350;2023-06-22T11:27:50;25.80;99.90
24860;DHT22;12936;52.006;4.350;2023-06-22T11:30:20;25.80;99.90
24860;DHT22;12936;52.006;4.350;2023-06-22T11:32:48;25.80;99.90
24860;DHT22;12936;52.006;4.350;2023-06-22T11:35:16;25.80;99.90
24860;DHT22;12936;52.006;4.350;2023-06-22T11:37:44;25.90;99.90
24860;DHT22;12936;52.006;4.350;2023-06-22T11:40:13;25.80;99.90
24860;DHT22;12936;52.006;4.350;2023-06-22T11:42:41;25.90;99.90
24860;DHT22;12936;52.006;4.350;2023-06-22T11:45:12;25.90;99.90
24860;DHT22;12936;52.006;4.350;2023-06-22T11:47:40;25.80;99.90
24860;DHT22;12936;52.006;4.350;2023-06-22T11:50:09;25.90;99.90
24860;DHT22;12936;52.006;4.350;2023-06-22T11:52:38;25.90;99.90
24860;DHT22;12936;52.006;4.350;2023-06-22T11:58:17;25.90;99.90
24860;DHT22;12936;52.006;4.350;2023-06-22T12:00:47;25.80;99.90
24860;DHT22;12936;52.006;4.350;2023-06-22T12:03:18;25.80;99.90
24860;DHT22;12936;52.006;4.350;2023-06-22T12:05:50;25.80;99.90
24860;DHT22;12936;52.006;4.350;2023-06-22T12:08:19;25.80;99.90
24860;DHT22;12936;52.006;4.350;2023-06-22T12:11:21;25.70;99.90
24860;DHT22;12936;52.006;4.350;2023-06-22T12:14:50;25.70;99.90
24860;DHT22;12936;52.006;4.350;2023-06-22T12:17:19;25.70;99.90
24860;DHT22;12936;52.006;4.350;2023-06-22T12:19:47;25.70;99.90
24860;DHT22;12936;52.006;4.350;2023-06-22T12:22:16;25.70;99.90
24860;DHT22;12936;52.006;4.350;2023-06-22T12:24:44;25.60;99.90
24860;DHT22;12936;52.006;4.350;2023-06-22T12:27:13;25.60;99.90
24860;DHT22;12936;52.006;4.350;2023-06-22T12:29:43;25.60;99.90
24860;DHT22;12936;52.006;4.350;2023-06-22T12:32:11;25.60;99.90
24860;DHT22;12936;52.006;4.350;2023-06-22T12:34:41;25.60;99.90
24860;DHT22;12936;52.006;4.350;2023-06-22T12:37:10;25.60;99.90
24860;DHT22;12936;52.006;4.350;2023-06-22T12:39:40;25.60;99.90
24860;DHT22;12936;52.006;4.350;2023-06-22T12:42:08;25.50;99.90
24860;DHT22;12936;52.006;4.350;2023-06-22T12:44:38;25.50;99.90
24860;DHT22;12936;52.006;4.350;2023-06-22T12:47:07;25.50;99.90
24860;DHT22;12936;52.006;4.350;2023-06-22T12:49:36;25.50;99.90
24860;DHT22;12936;52.006;4.350;2023-06-22T12:52:08;25.50;99.90
24860;DHT22;12936;52.006;4.350;2023-06-22T12:54:38;25.50;99.90
24860;DHT22;12936;52.006;4.350;2023-06-22T12:57:21;25.50;99.90
24860;DHT22;12936;52.006;4.350;2023-06-22T12:59:50;25.50;99.90
24860;DHT22;12936;52.006;4.350;2023-06-22T13:02:18;25.50;99.90
24860;DHT22;12936;52.006;4.350;2023-06-22T13:04:46;25.50;99.90
24860;DHT22;12936;52.006;4.350;2023-06-22T13:07:16;25.50;99.90
24860;DHT22;12936;52.006;4.350;2023-06-22T13:09:49;25.60;99.90
24860;DHT22;12936;52.006;4.350;2023-06-22T13:12:20;25.60;99.90
24860;DHT22;12936;52.006;4.350;2023-06-22T13:14:48;25.60;99.90
24860;DHT22;12936;52.006;4.350;2023-06-22T13:17:16;25.60;99.90
24860;DHT22;12936;52.006;4.350;2023-06-22T13:19:45;25.60;99.90
24860;DHT22;12936;52.006;4.350;2023-06-22T13:22:30;25.60;99.90
24860;DHT22;12936;52.006;4.350;2023-06-22T13:24:59;25.60;99.90
24860;DHT22;12936;52.006;4.350;2023-06-22T13:27:28;25.60;99.90
24860;DHT22;12936;52.006;4.350;2023-06-22T13:29:56;25.60;99.90
24860;DHT22;12936;52.006;4.350;2023-06-22T13:32:24;25.60;99.90
24860;DHT22;12936;52.006;4.350;2023-06-22T13:34:53;25.60;99.90
24860;DHT22;12936;52.006;4.350;2023-06-22T13:37:21;25.60;99.90
24860;DHT22;12936;52.006;4.350;2023-06-22T13:39:53;25.60;99.90
24860;DHT22;12936;52.006;4.350;2023-06-22T13:42:23;25.60;99.90
24860;DHT22;12936;52.006;4.350;2023-06-22T13:44:52;25.60;99.90
24860;DHT22;12936;52.006;4.350;2023-06-22T13:47:20;25.60;99.90
24860;DHT22;12936;52.006;4.350;2023-06-22T13:49:50;25.60;99.90
24860;DHT22;12936;52.006;4.350;2023-06-22T13:52:18;25.60;99.90
24860;DHT22;12936;52.006;4.350;2023-06-22T13:54:46;25.60;99.90
24860;DHT22;12936;52.006;4.350;2023-06-22T13:57:16;25.60;99.90
24860;DHT22;12936;52.006;4.350;2023-06-22T13:59:44;25.60;99.90
24860;DHT22;12936;52.006;4.350;2023-06-22T14:02:13;25.60;99.90
24860;DHT22;12936;52.006;4.350;2023-06-22T14:04:41;25.60;99.90
24860;DHT22;12936;52.006;4.350;2023-06-22T14:07:09;25.60;99.90
24860;DHT22;12936;52.006;4.350;2023-06-22T14:09:37;25.60;99.90
24860;DHT22;12936;52.006;4.350;2023-06-22T14:12:06;25.60;99.90
24860;DHT22;12936;52.006;4.350;2023-06-22T14:14:35;25.70;99.90
24860;DHT22;12936;52.006;4.350;2023-06-22T14:17:04;25.60;99.90
24860;DHT22;12936;52.006;4.350;2023-06-22T14:19:33;25.60;99.90
24860;DHT22;12936;52.006;4.350;2023-06-22T14:22:01;25.60;99.90
24860;DHT22;12936;52.006;4.350;2023-06-22T14:24:29;25.60;99.90
24860;DHT22;12936;52.006;4.350;2023-06-22T14:26:58;25.60;99.90
24860;DHT22;12936;52.006;4.350;2023-06-22T14:29:29;25.50;99.90
24860;DHT22;12936;52.006;4.350;2023-06-22T14:31:59;25.60;99.90
24860;DHT22;12936;52.006;4.350;2023-06-22T14:34:27;25.50;99.90
24860;DHT22;12936;52.006;4.350;2023-06-22T14:36:55;25.50;99.90
24860;DHT22;12936;52.006;4.350;2023-06-22T14:39:24;25.40;99.90
24860;DHT22;12936;52.006;4.350;2023-06-22T14:41:52;25.40;99.90
24860;DHT22;12936;52.006;4.350;2023-06-22T14:44:24;25.40;99.90
24860;DHT22;12936;52.006;4.350;2023-06-22T14:46:52;25.40;99.90
24860;DHT22;12936;52.006;4.350;2023-06-22T14:49:24;25.30;99.90
24860;DHT22;12936;52.006;4.350;2023-06-22T14:51:52;25.30;99.90
24860;DHT22;12936;52.006;4.350;2023-06-22T14:54:20;25.30;99.90
24860;DHT22;12936;52.006;4.350;2023-06-22T14:56:48;25.20;99.90
24860;DHT22;12936;52.006;4.350;2023-06-22T14:59:18;25.20;99.90
24860;DHT22;12936;52.006;4.350;2023-06-22T15:01:46;25.20;99.90
24860;DHT22;12936;52.006;4.350;2023-06-22T15:04:15;25.20;99.90
24860;DHT22;12936;52.006;4.350;2023-06-22T15:06:45;25.10;99.90
24860;DHT22;12936;52.006;4.350;2023-06-22T15:09:13;25.10;99.90
24860;DHT22;12936;52.006;4.350;2023-06-22T15:11:41;25.10;99.90
24860;DHT22;12936;52.006;4.350;2023-06-22T15:14:09;25.10;99.90
24860;DHT22;12936;52.006;4.350;2023-06-22T15:16:39;25.10;99.90
24860;DHT22;12936;52.006;4.350;2023-06-22T15:19:09;25.00;99.90
24860;DHT22;12936;52.006;4.350;2023-06-22T15:21:39;25.00;99.90
24860;DHT22;12936;52.006;4.350;2023-06-22T15:24:09;25.00;99.90
24860;DHT22;12936;52.006;4.350;2023-06-22T15:26:37;25.00;99.90
24860;DHT22;12936;52.006;4.350;2023-06-22T15:29:05;25.00;99.90
24860;DHT22;12936;52.006;4.350;2023-06-22T15:31:34;25.00;99.90
24860;DHT22;12936;52.006;4.350;2023-06-22T15:34:02;25.00;99.90
24860;DHT22;12936;52.006;4.350;2023-06-22T15:36:30;25.00;99.90
24860;DHT22;12936;52.006;4.350;2023-06-22T15:39:00;24.90;99.90
24860;DHT22;12936;52.006;4.350;2023-06-22T15:41:30;24.90;99.90
24860;DHT22;12936;52.006;4.350;2023-06-22T15:43:58;24.80;99.90
24860;DHT22;12936;52.006;4.350;2023-06-22T15:46:26;24.80;99.90
24860;DHT22;12936;52.006;4.350;2023-06-22T15:48:54;24.70;99.90
24860;DHT22;12936;52.006;4.350;2023-06-22T15:51:24;24.60;99.90
24860;DHT22;12936;52.006;4.350;2023-06-22T15:53:52;24.60;99.90
24860;DHT22;12936;52.006;4.350;2023-06-22T15:56:24;24.50;99.90
24860;DHT22;12936;52.006;4.350;2023-06-22T15:58:53;24.50;99.90